sensor_id;sensor_type;location;lat;lon;timestamp;pressure;altitude;pressure_sealevel;temperature;humidity
18509;BME280;9383;50.928;12.116;2023-07-20T00:02:06;98498.13;;;16.36;99.32
18509;BME280;9383;50.928;12.116;2023-07-20T00:04:34;98493.75;;;16.35;99.37
18509;BME280;9383;50.928;12.116;2023-07-20T00:07:05;98489.38;;;16.34;99.21
18509;BME280;9383;50.928;12.116;2023-07-20T00:09:32;98498.44;;;16.31;99.12
18509;BME280;9383;50.928;12.116;2023-07-20T00:11:59;98502.28;;;16.27;98.74
18509;BME280;9383;50.928;12.116;2023-07-20T00:14:28;98498.94;;;16.24;98.40
18509;BME280;9383;50.928;12.116;2023-07-20T00:16:58;98494.78;;;16.20;98.11
18509;BME280;9383;50.928;12.116;2023-07-20T00:19:28;98489.59;;;16.16;97.76
18509;BME280;9383;50.928;12.116;2023-07-20T00:21:56;98485.41;;;16.12;97.37
18509;BME280;9383;50.928;12.116;2023-07-20T00:24:28;98488.50;;;16.06;97.23
18509;BME280;9383;50.928;12.116;2023-07-20T00:27:02;98489.66;;;16.02;96.88
18509;BME280;9383;50.928;12.116;2023-07-20T00:29:32;98490.16;;;15.94;96.31
18509;BME280;9383;50.928;12.116;2023-07-20T00:32:01;98495.00;;;15.87;96.05
18509;BME280;9383;50.928;12.116;2023-07-20T00:34:30;98491.94;;;15.79;95.93
18509;BME280;9383;50.928;12.116;2023-07-20T00:36:58;98481.00;;;15.69;95.76
18509;BME280;9383;50.928;12.116;2023-07-20T00:39:27;98480.06;;;15.56;96.28
18509;BME280;9383;50.928;12.116;2023-07-20T00:41:55;98478.06;;;15.45;96.31
18509;BME280;9383;50.928;12.116;2023-07-20T00:44:22;98477.97;;;15.32;96.56
18509;BME280;9383;50.928;12.116;2023-07-20T00:46:50;98482.16;;;15.22;96.86
18509;BME280;9383;50.928;12.116;2023-07-20T00:49:20;98489.97;;;15.10;97.36
18509;BME280;9383;50.928;12.116;2023-07-20T00:51:52;98485.88;;;15.04;97.83
18509;BME280;9383;50.928;12.116;2023-07-20T00:54:24;98479.09;;;14.99;97.69
18509;BME280;9383;50.928;12.116;2023-07-20T00:56:56;98475.16;;;14.90;97.86
18509;BME280;9383;50.928;12.116;2023-07-20T00:59:28;98477.19;;;14.86;97.72
18509;BME280;9383;50.928;12.116;2023-07-20T01:02:00;98474.66;;;14.83;97.58
18509;BME280;9383;50.928;12.116;2023-07-20T01:04:35;98476.69;;;14.80;96.79
18509;BME280;9383;50.928;12.116;2023-07-20T01:07:25;98485.66;;;14.62;96.74
18509;BME280;9383;50.928;12.116;2023-07-20T01:10:23;98478.66;;;14.45;97.71
18509;BME280;9383;50.928;12.116;2023-07-20T01:12:53;98479.78;;;14.41;98.05
18509;BME280;9383;50.928;12.116;2023-07-20T01:15:23;98472.81;;;14.39;97.83
18509;BME280;9383;50.928;12.116;2023-07-20T01:17:52;98480.88;;;14.37;97.40
18509;BME280;9383;50.928;12.116;2023-07-20T01:20:22;98472.19;;;14.33;97.11
18509;BME280;9383;50.928;12.116;2023-07-20T01:26:03;98461.41;;;14.20;96.94
18509;BME280;9383;50.928;12.116;2023-07-20T01:31:34;98465.63;;;14.09;96.93
18509;BME280;9383;50.928;12.116;2023-07-20T01:34:22;98467.63;;;14.05;96.69
18509;BME280;9383;50.928;12.116;2023-07-20T01:37:09;98475.94;;;13.99;96.78
18509;BME280;9383;50.928;12.116;2023-07-20T01:39:56;98470.81;;;13.96;96.50
18509;BME280;9383;50.928;12.116;2023-07-20T01:42:24;98474.59;;;13.91;96.20
18509;BME280;9383;50.928;12.116;2023-07-20T01:44:56;98458.94;;;13.85;96.18
18509;BME280;9383;50.928;12.116;2023-07-20T01:47:26;98453.03;;;13.80;96.48
18509;BME280;9383;50.928;12.116;2023-07-20T01:49:56;98455.94;;;13.75;96.29
18509;BME280;9383;50.928;12.116;2023-07-20T01:52:24;98466.78;;;13.72;96.77
18509;BME280;9383;50.928;12.116;2023-07-20T01:55:00;98471.41;;;13.69;96.77
18509;BME280;9383;50.928;12.116;2023-07-20T01:57:26;98468.81;;;13.67;96.44
18509;BME280;9383;50.928;12.116;2023-07-20T01:59:53;98469.19;;;13.61;96.30
18509;BME280;9383;50.928;12.116;2023-07-20T02:02:23;98469.59;;;13.53;96.34
18509;BME280;9383;50.928;12.116;2023-07-20T02:04:50;98465.47;;;13.47;96.60
18509;BME280;9383;50.928;12.116;2023-07-20T02:07:18;98472.78;;;13.42;96.47
18509;BME280;9383;50.928;12.116;2023-07-20T02:09:44;98466.94;;;13.35;96.78
18509;BME280;9383;50.928;12.116;2023-07-20T02:12:11;98471.50;;;13.33;97.30
18509;BME280;9383;50.928;12.116;2023-07-20T02:14:37;98472.44;;;13.32;97.44
18509;BME280;9383;50.928;12.116;2023-07-20T02:17:04;98468.25;;;13.28;97.36
18509;BME280;9383;50.928;12.116;2023-07-20T02:19:31;98478.09;;;13.26;97.30
18509;BME280;9383;50.928;12.116;2023-07-20T02:21:57;98480.91;;;13.23;97.38
18509;BME280;9383;50.928;12.116;2023-07-20T02:24:24;98479.44;;;13.17;97.57
18509;BME280;9383;50.928;12.116;2023-07-20T02:26:52;98485.94;;;13.12;97.63
18509;BME280;9383;50.928;12.116;2023-07-20T02:29:20;98487.13;;;13.06;97.89
18509;BME280;9383;50.928;12.116;2023-07-20T02:31:46;98481.13;;;13.02;98.07
18509;BME280;9383;50.928;12.116;2023-07-20T02:34:12;98484.72;;;13.01;98.54
18509;BME280;9383;50.928;12.116;2023-07-20T02:36:39;98483.00;;;13.00;98.50
18509;BME280;9383;50.928;12.116;2023-07-20T02:39:08;98473.38;;;12.98;98.62
18509;BME280;9383;50.928;12.116;2023-07-20T02:41:35;98479.66;;;12.97;98.67
18509;BME280;9383;50.928;12.116;2023-07-20T02:44:01;98478.06;;;12.92;98.81
18509;BME280;9383;50.928;12.116;2023-07-20T02:46:30;98484.50;;;12.88;99.12
18509;BME280;9383;50.928;12.116;2023-07-20T02:48:58;98488.34;;;12.83;99.54
18509;BME280;9383;50.928;12.116;2023-07-20T02:51:24;98485.84;;;12.79;99.61
18509;BME280;9383;50.928;12.116;2023-07-20T02:53:53;98487.88;;;12.74;99.94
18509;BME280;9383;50.928;12.116;2023-07-20T02:56:20;98487.25;;;12.69;100.00
18509;BME280;9383;50.928;12.116;2023-07-20T02:58:47;98493.50;;;12.68;100.00
18509;BME280;9383;50.928;12.116;2023-07-20T03:01:13;98498.81;;;12.68;100.00
18509;BME280;9383;50.928;12.116;2023-07-20T03:03:42;98500.53;;;12.69;100.00
18509;BME280;9383;50.928;12.116;2023-07-20T03:06:14;98507.75;;;12.67;100.00
18509;BME280;9383;50.928;12.116;2023-07-20T03:08:43;98505.31;;;12.62;100.00
18509;BME280;9383;50.928;12.116;2023-07-20T03:11:11;98508.28;;;12.56;100.00
18509;BME280;9383;50.928;12.116;2023-07-20T03:13:40;98503.81;;;12.57;100.00
18509;BME280;9383;50.928;12.116;2023-07-20T03:16:06;98505.53;;;12.58;100.00
18509;BME280;9383;50.928;12.116;2023-07-20T03:18:38;98500.16;;;12.59;100.00
18509;BME280;9383;50.928;12.116;2023-07-20T03:21:05;98512.41;;;12.62;100.00
18509;BME280;9383;50.928;12.116;2023-07-20T03:23:32;98523.00;;;12.63;100.00
18509;BME280;9383;50.928;12.116;2023-07-20T03:26:00;98507.75;;;12.67;100.00
18509;BME280;9383;50.928;12.116;2023-07-20T03:28:30;98507.75;;;12.67;100.00
18509;BME280;9383;50.928;12.116;2023-07-20T03:30:57;98504.16;;;12.68;100.00
18509;BME280;9383;50.928;12.116;2023-07-20T03:33:27;98500.53;;;12.69;100.00
18509;BME280;9383;50.928;12.116;2023-07-20T03:35:54;98502.25;;;12.70;100.00
18509;BME280;9383;50.928;12.116;2023-07-20T03:38:22;98506.66;;;12.71;100.00
18509;BME280;9383;50.928;12.116;2023-07-20T03:40:53;98512.84;;;12.72;100.00
18509;BME280;9383;50.928;12.116;2023-07-20T03:43:22;98510.94;;;12.74;100.00
18509;BME280;9383;50.928;12.116;2023-07-20T03:45:50;98516.09;;;12.77;100.00
18509;BME280;9383;50.928;12.116;2023-07-20T03:48:21;98516.97;;;12.77;100.00
18509;BME280;9383;50.928;12.116;2023-07-20T03:50:50;98518.53;;;12.82;100.00
18509;BME280;9383;50.928;12.116;2023-07-20T03:53:18;98525.41;;;12.86;100.00
18509;BME280;9383;50.928;12.116;2023-07-20T03:55:48;98527.91;;;12.89;100.00
18509;BME280;9383;50.928;12.116;2023-07-20T03:58:16;98530.34;;;12.93;100.00
18509;BME280;9383;50.928;12.116;2023-07-20T04:00:49;98524.00;;;12.96;100.00
18509;BME280;9383;50.928;12.116;2023-07-20T04:03:19;98524.72;;;13.00;100.00
18509;BME280;9383;50.928;12.116;2023-07-20T04:05:55;98520.94;;;13.04;100.00
18509;BME280;9383;50.928;12.116;2023-07-20T04:08:23;98517.19;;;13.08;100.00
18509;BME280;9383;50.928;12.116;2023-07-20T04:10:50;98524.84;;;13.14;100.00
18509;BME280;9383;50.928;12.116;2023-07-20T04:13:17;98525.38;;;13.21;100.00
18509;BME280;9383;50.928;12.116;2023-07-20T04:15:44;98530.41;;;13.27;100.00
18509;BME280;9383;50.928;12.116;2023-07-20T04:18:11;98531.78;;;13.34;100.00
18509;BME280;9383;50.928;12.116;2023-07-20T04:20:37;98536.69;;;13.42;100.00
18509;BME280;9383;50.928;12.116;2023-07-20T04:23:04;98540.88;;;13.48;100.00
18509;BME280;9383;50.928;12.116;2023-07-20T04:25:30;98545.06;;;13.52;100.00
18509;BME280;9383;50.928;12.116;2023-07-20T04:28:08;98544.75;;;13.58;100.00
18509;BME280;9383;50.928;12.116;2023-07-20T04:30:37;98541.69;;;13.66;100.00
18509;BME280;9383;50.928;12.116;2023-07-20T04:33:04;98543.16;;;13.72;100.00
18509;BME280;9383;50.928;12.116;2023-07-20T04:35:50;98531.22;;;13.79;100.00
18509;BME280;9383;50.928;12.116;2023-07-20T04:38:17;98529.94;;;13.86;100.00
18509;BME280;9383;50.928;12.116;2023-07-20T04:40:45;98542.81;;;13.94;100.00
18509;BME280;9383;50.928;12.116;2023-07-20T04:43:13;98543.28;;;14.02;100.00
18509;BME280;9383;50.928;12.116;2023-07-20T04:45:40;98542.84;;;14.10;100.00
18509;BME280;9383;50.928;12.116;2023-07-20T04:48:12;98538.03;;;14.17;100.00
18509;BME280;9383;50.928;12.116;2023-07-20T04:50:44;98475.81;;;13.86;100.00
18509;BME280;9383;50.928;12.116;2023-07-20T04:53:13;98539.22;;;14.27;100.00
18509;BME280;9383;50.928;12.116;2023-07-20T04:55:40;98532.69;;;14.33;100.00
18509;BME280;9383;50.928;12.116;2023-07-20T04:58:13;98534.97;;;14.39;100.00
18509;BME280;9383;50.928;12.116;2023-07-20T05:00:39;98536.44;;;14.45;100.00
18509;BME280;9383;50.928;12.116;2023-07-20T05:03:05;98533.44;;;14.51;100.00
18509;BME280;9383;50.928;12.116;2023-07-20T05:05:32;98541.25;;;14.54;100.00
18509;BME280;9383;50.928;12.116;2023-07-20T05:07:59;98529.38;;;14.60;100.00
18509;BME280;9383;50.928;12.116;2023-07-20T05:10:26;98532.63;;;14.65;100.00
18509;BME280;9383;50.928;12.116;2023-07-20T05:12:52;98537.59;;;14.71;100.00
18509;BME280;9383;50.928;12.116;2023-07-20T05:15:20;98540.81;;;14.78;100.00
18509;BME280;9383;50.928;12.116;2023-07-20T05:17:46;98534.16;;;14.85;100.00
18509;BME280;9383;50.928;12.116;2023-07-20T05:20:15;98548.84;;;14.93;100.00
18509;BME280;9383;50.928;12.116;2023-07-20T05:22:43;98536.94;;;14.98;100.00
18509;BME280;9383;50.928;12.116;2023-07-20T05:25:10;98546.22;;;15.07;100.00
18509;BME280;9383;50.928;12.116;2023-07-20T05:27:38;98552.91;;;15.14;100.00
18509;BME280;9383;50.928;12.116;2023-07-20T05:30:07;98546.22;;;15.22;100.00
18509;BME280;9383;50.928;12.116;2023-07-20T05:32:35;98537.75;;;15.29;100.00
18509;BME280;9383;50.928;12.116;2023-07-20T05:35:02;98549.78;;;15.37;100.00
18509;BME280;9383;50.928;12.116;2023-07-20T05:37:29;98548.47;;;15.44;100.00
18509;BME280;9383;50.928;12.116;2023-07-20T05:39:55;98545.34;;;15.52;100.00
18509;BME280;9383;50.928;12.116;2023-07-20T05:42:22;98546.56;;;15.60;100.00
18509;BME280;9383;50.928;12.116;2023-07-20T05:44:49;98553.25;;;15.68;100.00
18509;BME280;9383;50.928;12.116;2023-07-20T05:47:16;98554.56;;;15.75;100.00
18509;BME280;9383;50.928;12.116;2023-07-20T05:49:42;98540.72;;;15.83;100.00
18509;BME280;9383;50.928;12.116;2023-07-20T05:52:11;98548.28;;;15.91;100.00
18509;BME280;9383;50.928;12.116;2023-07-20T05:54:38;98541.69;;;15.96;100.00
18509;BME280;9383;50.928;12.116;2023-07-20T05:57:07;98543.13;;;16.02;100.00
18509;BME280;9383;50.928;12.116;2023-07-20T05:59:33;98548.16;;;16.07;100.00
18509;BME280;9383;50.928;12.116;2023-07-20T06:02:00;98563.84;;;16.13;100.00
18509;BME280;9383;50.928;12.116;2023-07-20T06:04:27;98554.66;;;16.17;100.00
18509;BME280;9383;50.928;12.116;2023-07-20T06:06:53;98548.88;;;16.23;100.00
18509;BME280;9383;50.928;12.116;2023-07-20T06:09:20;98563.69;;;16.29;100.00
18509;BME280;9383;50.928;12.116;2023-07-20T06:11:46;98554.53;;;16.33;100.00
18509;BME280;9383;50.928;12.116;2023-07-20T06:14:13;98546.19;;;16.38;100.00
18509;BME280;9383;50.928;12.116;2023-07-20T06:16:40;98552.84;;;16.45;100.00
18509;BME280;9383;50.928;12.116;2023-07-20T06:19:07;98551.59;;;16.51;100.00
18509;BME280;9383;50.928;12.116;2023-07-20T06:21:33;98552.16;;;16.56;100.00
18509;BME280;9383;50.928;12.116;2023-07-20T06:23:59;98556.13;;;16.63;100.00
18509;BME280;9383;50.928;12.116;2023-07-20T06:26:26;98553.06;;;16.69;100.00
18509;BME280;9383;50.928;12.116;2023-07-20T06:28:53;98551.66;;;16.77;100.00
18509;BME280;9383;50.928;12.116;2023-07-20T06:31:19;98551.16;;;16.84;100.00
18509;BME280;9383;50.928;12.116;2023-07-20T06:33:46;98551.59;;;16.91;100.00
18509;BME280;9383;50.928;12.116;2023-07-20T06:36:12;98552.03;;;16.98;100.00
18509;BME280;9383;50.928;12.116;2023-07-20T06:38:39;98544.38;;;17.06;100.00
18509;BME280;9383;50.928;12.116;2023-07-20T06:41:05;98543.63;;;17.17;100.00
18509;BME280;9383;50.928;12.116;2023-07-20T06:43:32;98541.19;;;17.27;100.00
18509;BME280;9383;50.928;12.116;2023-07-20T06:45:59;98539.69;;;17.36;100.00
18509;BME280;9383;50.928;12.116;2023-07-20T06:48:25;98536.81;;;17.39;100.00
18509;BME280;9383;50.928;12.116;2023-07-20T06:50:52;98543.56;;;17.44;100.00
18509;BME280;9383;50.928;12.116;2023-07-20T06:53:19;98539.50;;;17.52;100.00
18509;BME280;9383;50.928;12.116;2023-07-20T06:55:45;98545.06;;;17.62;100.00
18509;BME280;9383;50.928;12.116;2023-07-20T06:58:12;98547.19;;;17.69;100.00
18509;BME280;9383;50.928;12.116;2023-07-20T07:00:41;98547.50;;;17.78;100.00
18509;BME280;9383;50.928;12.116;2023-07-20T07:03:07;98540.63;;;17.86;100.00
18509;BME280;9383;50.928;12.116;2023-07-20T07:05:36;98543.06;;;17.90;100.00
18509;BME280;9383;50.928;12.116;2023-07-20T07:08:04;98541.78;;;17.95;98.88
18509;BME280;9383;50.928;12.116;2023-07-20T07:10:32;98543.16;;;18.01;98.33
18509;BME280;9383;50.928;12.116;2023-07-20T07:12:59;98545.31;;;18.09;98.19
18509;BME280;9383;50.928;12.116;2023-07-20T07:15:27;98551.00;;;18.17;97.78
18509;BME280;9383;50.928;12.116;2023-07-20T07:17:54;98543.13;;;18.27;97.71
18509;BME280;9383;50.928;12.116;2023-07-20T07:20:20;98546.94;;;18.36;96.76
18509;BME280;9383;50.928;12.116;2023-07-20T07:22:50;98545.41;;;18.45;96.42
18509;BME280;9383;50.928;12.116;2023-07-20T07:25:17;98540.88;;;18.58;96.17
18509;BME280;9383;50.928;12.116;2023-07-20T07:27:43;98538.44;;;18.66;95.33
18509;BME280;9383;50.928;12.116;2023-07-20T07:30:10;98543.97;;;18.76;94.04
18509;BME280;9383;50.928;12.116;2023-07-20T07:32:37;98548.31;;;18.90;93.74
18509;BME280;9383;50.928;12.116;2023-07-20T07:35:04;98546.19;;;19.07;92.98
18509;BME280;9383;50.928;12.116;2023-07-20T07:37:31;98548.69;;;19.21;91.65
18509;BME280;9383;50.928;12.116;2023-07-20T07:39:57;98543.44;;;19.31;90.17
18509;BME280;9383;50.928;12.116;2023-07-20T07:42:25;98550.56;;;19.44;87.66
18509;BME280;9383;50.928;12.116;2023-07-20T07:44:51;98551.16;;;19.59;88.26
18509;BME280;9383;50.928;12.116;2023-07-20T07:47:18;98556.31;;;19.73;87.41
18509;BME280;9383;50.928;12.116;2023-07-20T07:49:46;98557.16;;;19.85;85.82
18509;BME280;9383;50.928;12.116;2023-07-20T07:52:13;98551.44;;;20.01;84.76
18509;BME280;9383;50.928;12.116;2023-07-20T07:54:40;98546.53;;;20.18;84.42
18509;BME280;9383;50.928;12.116;2023-07-20T07:57:07;98547.38;;;20.30;82.97
18509;BME280;9383;50.928;12.116;2023-07-20T07:59:33;98555.41;;;20.41;82.14
18509;BME280;9383;50.928;12.116;2023-07-20T08:02:07;98554.91;;;20.47;81.09
18509;BME280;9383;50.928;12.116;2023-07-20T08:04:33;98549.88;;;20.54;79.78
18509;BME280;9383;50.928;12.116;2023-07-20T08:07:02;98558.94;;;20.53;78.57
18509;BME280;9383;50.928;12.116;2023-07-20T08:09:29;98555.53;;;20.51;78.75
18509;BME280;9383;50.928;12.116;2023-07-20T08:11:56;98557.94;;;20.54;78.93
18509;BME280;9383;50.928;12.116;2023-07-20T08:14:23;98554.00;;;20.58;78.93
18509;BME280;9383;50.928;12.116;2023-07-20T08:16:49;98550.44;;;20.69;78.87
18509;BME280;9383;50.928;12.116;2023-07-20T08:19:16;98553.97;;;20.81;77.50
18509;BME280;9383;50.928;12.116;2023-07-20T08:21:42;98544.84;;;20.93;77.31
18509;BME280;9383;50.928;12.116;2023-07-20T08:24:09;98542.38;;;21.02;75.27
18509;BME280;9383;50.928;12.116;2023-07-20T08:26:35;98542.88;;;20.96;73.81
18509;BME280;9383;50.928;12.116;2023-07-20T08:29:02;98541.56;;;20.90;73.61
18509;BME280;9383;50.928;12.116;2023-07-20T08:31:29;98545.50;;;20.86;74.52
18509;BME280;9383;50.928;12.116;2023-07-20T08:33:55;98548.06;;;20.87;74.72
18509;BME280;9383;50.928;12.116;2023-07-20T08:36:26;98551.50;;;20.89;73.90
18509;BME280;9383;50.928;12.116;2023-07-20T08:38:53;98551.34;;;20.91;73.90
18509;BME280;9383;50.928;12.116;2023-07-20T08:41:19;98554.91;;;20.91;72.55
18509;BME280;9383;50.928;12.116;2023-07-20T08:43:47;98556.63;;;20.92;72.30
18509;BME280;9383;50.928;12.116;2023-07-20T08:46:14;98550.25;;;20.93;72.11
18509;BME280;9383;50.928;12.116;2023-07-20T08:48:41;98552.94;;;20.93;71.66
18509;BME280;9383;50.928;12.116;2023-07-20T08:51:08;98545.72;;;20.94;71.42
18509;BME280;9383;50.928;12.116;2023-07-20T08:53:36;98551.88;;;20.85;70.58
18509;BME280;9383;50.928;12.116;2023-07-20T08:56:04;98553.13;;;20.36;70.47
18509;BME280;9383;50.928;12.116;2023-07-20T08:58:31;98550.34;;;20.04;72.82
18509;BME280;9383;50.928;12.116;2023-07-20T09:01:01;98555.59;;;19.94;74.47
18509;BME280;9383;50.928;12.116;2023-07-20T09:03:28;98559.75;;;19.87;74.21
18509;BME280;9383;50.928;12.116;2023-07-20T09:05:55;98560.09;;;19.71;74.92
18509;BME280;9383;50.928;12.116;2023-07-20T09:08:21;98556.53;;;19.59;75.69
18509;BME280;9383;50.928;12.116;2023-07-20T09:10:48;98552.63;;;19.51;75.35
18509;BME280;9383;50.928;12.116;2023-07-20T09:13:15;98554.94;;;19.33;75.99
18509;BME280;9383;50.928;12.116;2023-07-20T09:15:52;98554.91;;;19.22;77.49
18509;BME280;9383;50.928;12.116;2023-07-20T09:18:26;98559.16;;;19.13;77.50
18509;BME280;9383;50.928;12.116;2023-07-20T09:20:58;98553.84;;;19.00;78.32
18509;BME280;9383;50.928;12.116;2023-07-20T09:23:39;98561.56;;;19.05;78.59
18509;BME280;9383;50.928;12.116;2023-07-20T09:26:13;98554.75;;;19.12;78.15
18509;BME280;9383;50.928;12.116;2023-07-20T09:28:52;98560.75;;;19.16;77.90
18509;BME280;9383;50.928;12.116;2023-07-20T09:31:20;98562.84;;;19.23;77.83
18509;BME280;9383;50.928;12.116;2023-07-20T09:33:48;98549.25;;;19.14;76.93
18509;BME280;9383;50.928;12.116;2023-07-20T09:36:15;98558.88;;;19.05;77.36
18509;BME280;9383;50.928;12.116;2023-07-20T09:38:42;98561.28;;;18.96;77.72
18509;BME280;9383;50.928;12.116;2023-07-20T09:41:14;98559.53;;;18.95;78.83
18509;BME280;9383;50.928;12.116;2023-07-20T09:43:45;98564.13;;;19.06;79.16
18509;BME280;9383;50.928;12.116;2023-07-20T09:46:13;98567.34;;;19.23;79.55
18509;BME280;9383;50.928;12.116;2023-07-20T09:48:40;98568.47;;;19.32;78.08
18509;BME280;9383;50.928;12.116;2023-07-20T09:51:08;98567.63;;;19.31;77.95
18509;BME280;9383;50.928;12.116;2023-07-20T09:53:34;98562.38;;;19.41;78.52
18509;BME280;9383;50.928;12.116;2023-07-20T09:56:02;98562.66;;;19.49;78.27
18509;BME280;9383;50.928;12.116;2023-07-20T09:58:29;98566.19;;;19.61;78.37
18509;BME280;9383;50.928;12.116;2023-07-20T10:01:03;98577.31;;;19.68;77.02
18509;BME280;9383;50.928;12.116;2023-07-20T10:03:37;98570.75;;;19.61;76.24
18509;BME280;9383;50.928;12.116;2023-07-20T10:06:07;98584.78;;;19.53;76.25
18509;BME280;9383;50.928;12.116;2023-07-20T10:08:38;98583.44;;;19.47;77.17
18509;BME280;9383;50.928;12.116;2023-07-20T10:15:26;98590.94;;;18.95;81.61
18509;BME280;9383;50.928;12.116;2023-07-20T10:18:29;98584.47;;;18.97;82.21
18509;BME280;9383;50.928;12.116;2023-07-20T10:20:57;98585.75;;;19.05;82.57
18509;BME280;9383;50.928;12.116;2023-07-20T10:23:28;98573.03;;;19.07;83.03
18509;BME280;9383;50.928;12.116;2023-07-20T10:25:56;98567.66;;;19.07;84.34
18509;BME280;9383;50.928;12.116;2023-07-20T10:28:22;98566.88;;;19.18;85.40
18509;BME280;9383;50.928;12.116;2023-07-20T10:30:50;98562.00;;;19.34;86.50
18509;BME280;9383;50.928;12.116;2023-07-20T10:33:18;98563.88;;;19.57;86.96
18509;BME280;9383;50.928;12.116;2023-07-20T10:35:56;98556.69;;;19.80;87.35
18509;BME280;9383;50.928;12.116;2023-07-20T10:41:41;98559.16;;;20.17;85.14
18509;BME280;9383;50.928;12.116;2023-07-20T10:44:09;98563.38;;;20.31;85.01
18509;BME280;9383;50.928;12.116;2023-07-20T10:49:07;98572.78;;;20.37;81.78
18509;BME280;9383;50.928;12.116;2023-07-20T10:51:49;98580.16;;;20.35;80.80
18509;BME280;9383;50.928;12.116;2023-07-20T10:56:51;98570.38;;;20.22;80.99
18509;BME280;9383;50.928;12.116;2023-07-20T10:59:20;98574.88;;;20.22;81.46
18509;BME280;9383;50.928;12.116;2023-07-20T11:01:47;98574.88;;;20.22;81.43
18509;BME280;9383;50.928;12.116;2023-07-20T11:04:16;98582.75;;;20.25;81.59
18509;BME280;9383;50.928;12.116;2023-07-20T11:06:55;98575.75;;;20.22;81.96
18509;BME280;9383;50.928;12.116;2023-07-20T11:09:22;98589.34;;;20.21;81.84
18509;BME280;9383;50.928;12.116;2023-07-20T11:12:13;98592.13;;;19.85;80.31
18509;BME280;9383;50.928;12.116;2023-07-20T11:14:54;98596.09;;;19.45;81.90
18509;BME280;9383;50.928;12.116;2023-07-20T11:17:32;98597.47;;;19.04;83.22
18509;BME280;9383;50.928;12.116;2023-07-20T11:19:59;98599.44;;;18.64;84.82
18509;BME280;9383;50.928;12.116;2023-07-20T11:22:31;98597.38;;;18.44;87.31
18509;BME280;9383;50.928;12.116;2023-07-20T11:24:58;98598.25;;;18.31;88.56
18509;BME280;9383;50.928;12.116;2023-07-20T11:27:25;98605.16;;;18.22;88.42
18509;BME280;9383;50.928;12.116;2023-07-20T11:29:53;98604.09;;;18.25;89.13
18509;BME280;9383;50.928;12.116;2023-07-20T11:32:24;98609.13;;;18.17;89.15
18509;BME280;9383;50.928;12.116;2023-07-20T11:34:51;98604.44;;;18.07;89.53
18509;BME280;9383;50.928;12.116;2023-07-20T11:37:18;98600.81;;;18.08;90.11
18509;BME280;9383;50.928;12.116;2023-07-20T11:39:44;98595.16;;;18.24;90.56
18509;BME280;9383;50.928;12.116;2023-07-20T11:42:12;98591.50;;;18.38;88.78
18509;BME280;9383;50.928;12.116;2023-07-20T11:44:40;98589.22;;;18.45;85.96
18509;BME280;9383;50.928;12.116;2023-07-20T11:47:13;98587.03;;;18.50;85.38
18509;BME280;9383;50.928;12.116;2023-07-20T11:49:42;98590.25;;;18.55;84.28
18509;BME280;9383;50.928;12.116;2023-07-20T11:52:13;98590.09;;;18.46;81.57
18509;BME280;9383;50.928;12.116;2023-07-20T11:54:43;98581.81;;;18.36;81.90
18509;BME280;9383;50.928;12.116;2023-07-20T11:57:17;98588.81;;;18.38;81.74
18509;BME280;9383;50.928;12.116;2023-07-20T12:02:23;98595.00;;;18.39;80.05
18509;BME280;9383;50.928;12.116;2023-07-20T12:04:53;98604.25;;;18.48;80.03
18509;BME280;9383;50.928;12.116;2023-07-20T12:07:20;98601.41;;;18.62;80.08
18509;BME280;9383;50.928;12.116;2023-07-20T12:10:09;98597.22;;;18.82;80.17
18509;BME280;9383;50.928;12.116;2023-07-20T12:12:40;98598.88;;;18.96;79.50
18509;BME280;9383;50.928;12.116;2023-07-20T12:15:20;98603.84;;;19.14;80.26
18509;BME280;9383;50.928;12.116;2023-07-20T12:17:50;98597.06;;;19.21;76.99
18509;BME280;9383;50.928;12.116;2023-07-20T12:20:34;98593.16;;;19.25;75.25
18509;BME280;9383;50.928;12.116;2023-07-20T12:23:08;98586.06;;;19.24;75.43
18509;BME280;9383;50.928;12.116;2023-07-20T12:25:43;98592.28;;;19.25;75.86
18509;BME280;9383;50.928;12.116;2023-07-20T12:28:15;98593.63;;;19.31;76.55
18509;BME280;9383;50.928;12.116;2023-07-20T12:30:43;98600.72;;;19.32;76.25
18509;BME280;9383;50.928;12.116;2023-07-20T12:33:13;98607.63;;;19.47;77.00
18509;BME280;9383;50.928;12.116;2023-07-20T12:35:43;98606.88;;;19.57;74.38
18509;BME280;9383;50.928;12.116;2023-07-20T12:38:10;98600.06;;;19.64;74.74
18509;BME280;9383;50.928;12.116;2023-07-20T12:40:36;98598.38;;;19.74;74.99
18509;BME280;9383;50.928;12.116;2023-07-20T12:43:04;98598.13;;;19.77;72.85
18509;BME280;9383;50.928;12.116;2023-07-20T12:45:32;98597.41;;;19.75;73.12
18509;BME280;9383;50.928;12.116;2023-07-20T12:47:59;98606.81;;;19.70;73.46
18509;BME280;9383;50.928;12.116;2023-07-20T12:50:27;98603.47;;;19.66;75.39
18509;BME280;9383;50.928;12.116;2023-07-20T12:52:54;98600.91;;;19.64;76.71
18509;BME280;9383;50.928;12.116;2023-07-20T12:55:20;98600.78;;;19.66;78.77
18509;BME280;9383;50.928;12.116;2023-07-20T12:57:47;98598.34;;;19.63;79.36
18509;BME280;9383;50.928;12.116;2023-07-20T13:00:15;98606.78;;;19.58;79.43
18509;BME280;9383;50.928;12.116;2023-07-20T13:02:42;98611.88;;;19.50;78.60
18509;BME280;9383;50.928;12.116;2023-07-20T13:05:09;98614.81;;;19.47;78.28
18509;BME280;9383;50.928;12.116;2023-07-20T13:07:37;98620.53;;;19.42;77.54
18509;BME280;9383;50.928;12.116;2023-07-20T13:10:06;98612.09;;;19.35;76.88
18509;BME280;9383;50.928;12.116;2023-07-20T13:12:33;98609.03;;;19.29;77.59
18509;BME280;9383;50.928;12.116;2023-07-20T13:15:02;98614.00;;;19.22;77.03
18509;BME280;9383;50.928;12.116;2023-07-20T13:17:36;98614.50;;;19.16;77.99
18509;BME280;9383;50.928;12.116;2023-07-20T13:20:03;98617.78;;;19.19;78.08
18509;BME280;9383;50.928;12.116;2023-07-20T13:22:31;98593.94;;;19.03;78.22
18509;BME280;9383;50.928;12.116;2023-07-20T13:24:57;98611.44;;;19.20;78.13
18509;BME280;9383;50.928;12.116;2023-07-20T13:27:24;98611.72;;;19.29;78.87
18509;BME280;9383;50.928;12.116;2023-07-20T13:29:52;98606.22;;;19.30;78.42